Time;durP1;ratioP1;P1;durP2;ratioP2;P2;SDS_P1;SDS_P2;PMS_P1;PMS_P2;Temp;Humidity;BMP_temperature;BMP_pressure;BME280_temperature;BME280_humidity;BME280_pressure;Samples;Min_cycle;Max_cycle;Signal;HPM_P1;HPM_P2
2023/07/12 00:01:10;;;;;;;558.47;380.65;;;19.50;99.90;;;;;;5025596;28;20435;-70
2023/07/12 00:03:37;;;;;;;550.47;364.40;;;19.50;99.90;;;;;;5017573;28;20463;-69
2023/07/12 00:06:17;;;;;;;542.08;340.30;;;19.50;99.90;;;;;;5028890;28;20463;-69
2023/07/12 00:08:44;;;;;;;544.63;352.58;;;19.50;99.90;;;;;;5027132;28;20433;-67
2023/07/12 00:11:19;;;;;;;547.35;355.30;;;19.50;99.90;;;;;;5030315;28;20553;-69
2023/07/12 00:13:46;;;;;;;551.00;363.95;;;19.40;99.90;;;;;;5024271;28;20474;-67
2023/07/12 00:16:30;;;;;;;559.53;376.95;;;19.50;99.90;;;;;;5023271;28;20458;-68
2023/07/12 00:18:57;;;;;;;578.03;401.33;;;19.50;99.90;;;;;;5024520;28;20426;-70
2023/07/12 00:21:27;;;;;;;579.07;408.53;;;19.50;99.90;;;;;;5023487;28;20483;-68
2023/07/12 00:23:55;;;;;;;585.72;425.52;;;19.50;99.90;;;;;;5023143;28;20457;-69
2023/07/12 00:26:42;;;;;;;585.67;421.95;;;19.50;99.90;;;;;;5023287;28;20508;-71
2023/07/12 00:29:10;;;;;;;587.72;415.50;;;19.50;99.90;;;;;;5022270;28;20573;-68
2023/07/12 00:31:38;;;;;;;593.25;425.27;;;19.50;99.90;;;;;;5026494;28;20437;-70
2023/07/12 00:34:08;;;;;;;601.65;444.33;;;19.50;99.90;;;;;;5029653;28;20438;-70
2023/07/12 00:36:35;;;;;;;601.47;441.13;;;19.50;99.90;;;;;;5029397;28;20500;-71
2023/07/12 00:39:03;;;;;;;600.42;435.42;;;19.40;99.90;;;;;;5031329;28;20429;-70
2023/07/12 00:42:09;;;;;;;602.72;431.27;;;19.40;99.90;;;;;;5009108;28;20462;-69
2023/07/12 00:44:44;;;;;;;609.55;451.15;;;19.40;99.90;;;;;;5019819;28;20473;-70
2023/07/12 00:47:13;;;;;;;610.58;449.42;;;19.50;99.90;;;;;;5025815;28;20438;-70
2023/07/12 00:49:40;;;;;;;616.57;459.63;;;19.50;99.90;;;;;;5040636;28;20512;-70
2023/07/12 00:52:16;;;;;;;618.25;456.33;;;19.60;99.90;;;;;;5025499;28;20554;-69
2023/07/12 00:55:01;;;;;;;618.05;446.98;;;19.60;99.90;;;;;;5027813;28;20437;-70
2023/07/12 00:57:30;;;;;;;619.20;452.20;;;19.60;99.90;;;;;;5028782;28;20810;-71
2023/07/12 01:00:04;;;;;;;621.03;460.73;;;19.60;99.90;;;;;;5015212;28;20516;-70
2023/07/12 01:02:31;;;;;;;616.95;447.23;;;19.60;99.90;;;;;;5027461;28;20435;-72
2023/07/12 01:05:00;;;;;;;623.85;453.98;;;19.50;99.90;;;;;;5028364;28;20901;-70
2023/07/12 01:07:29;;;;;;;625.78;454.65;;;19.50;99.90;;;;;;5028436;28;20430;-70
2023/07/12 01:09:57;;;;;;;620.73;448.13;;;19.50;99.90;;;;;;5024580;28;20928;-71
2023/07/12 01:12:24;;;;;;;621.92;456.23;;;19.50;99.90;;;;;;5031705;28;20533;-72
2023/07/12 01:14:51;;;;;;;620.90;447.00;;;19.50;99.90;;;;;;5032038;28;20430;-74
2023/07/12 01:17:20;;;;;;;626.10;456.88;;;19.40;99.90;;;;;;5014587;28;20463;-73
2023/07/12 01:19:47;;;;;;;624.47;450.63;;;19.40;99.90;;;;;;4995373;28;20607;-71
2023/07/12 01:22:14;;;;;;;622.65;453.30;;;19.40;99.90;;;;;;5018300;28;20749;-72
2023/07/12 01:24:43;;;;;;;623.22;449.40;;;19.40;99.90;;;;;;5020150;28;20506;-75
2023/07/12 01:27:19;;;;;;;622.97;452.80;;;19.40;99.90;;;;;;5029468;28;20427;-71
2023/07/12 01:29:48;;;;;;;610.80;450.45;;;19.40;99.90;;;;;;5031872;28;21162;-73
2023/07/12 01:32:15;;;;;;;617.47;429.98;;;19.40;99.90;;;;;;5023458;28;20469;-72
2023/07/12 01:34:41;;;;;;;622.33;438.50;;;19.40;99.90;;;;;;5031670;28;20897;-74
2023/07/12 01:37:09;;;;;;;626.50;450.00;;;19.30;99.90;;;;;;5031515;28;20434;-70
2023/07/12 01:39:35;;;;;;;624.13;443.27;;;19.30;99.90;;;;;;5030143;28;21036;-71
2023/07/12 01:42:02;;;;;;;619.67;432.60;;;19.30;99.90;;;;;;5031274;28;20500;-71
2023/07/12 01:44:29;;;;;;;621.65;431.88;;;19.30;99.90;;;;;;5041077;28;20504;-71
2023/07/12 01:46:56;;;;;;;627.72;453.40;;;19.30;99.90;;;;;;5030350;28;20435;-75
2023/07/12 01:49:23;;;;;;;615.10;446.67;;;19.30;99.90;;;;;;5034286;28;20785;-73
2023/07/12 01:51:50;;;;;;;631.30;457.52;;;19.30;99.90;;;;;;5049087;28;20429;-73
2023/07/12 01:54:17;;;;;;;598.90;447.15;;;19.30;99.90;;;;;;5046719;28;20429;-73
2023/07/12 01:56:44;;;;;;;608.53;480.33;;;19.20;99.90;;;;;;5043964;28;20944;-70
2023/07/12 01:59:11;;;;;;;638.08;451.63;;;19.10;99.90;;;;;;5030622;28;20431;-72
2023/07/12 02:01:37;;;;;;;627.93;426.20;;;19.10;99.90;;;;;;5028854;28;21028;-72
2023/07/12 02:04:06;;;;;;;632.08;441.42;;;19.10;99.90;;;;;;5031612;28;20437;-74
2023/07/12 02:06:36;;;;;;;628.42;429.40;;;19.00;99.90;;;;;;5030790;28;20517;-75
2023/07/12 02:09:06;;;;;;;630.80;435.33;;;19.00;99.90;;;;;;5029428;28;21197;-74
2023/07/12 02:11:33;;;;;;;622.47;415.58;;;19.00;99.90;;;;;;5029036;28;20961;-72
2023/07/12 02:14:00;;;;;;;624.78;432.55;;;19.00;99.90;;;;;;5030152;28;20427;-72
2023/07/12 02:16:26;;;;;;;623.78;425.75;;;19.00;99.90;;;;;;5029131;28;20482;-72
2023/07/12 02:18:53;;;;;;;624.95;415.15;;;19.00;99.90;;;;;;5030243;28;20431;-71
2023/07/12 02:21:20;;;;;;;624.85;423.25;;;19.10;99.90;;;;;;5024327;28;20452;-72
2023/07/12 02:23:47;;;;;;;631.83;425.80;;;19.00;99.90;;;;;;5031231;28;20913;-72
2023/07/12 02:26:16;;;;;;;640.38;437.85;;;18.90;99.90;;;;;;5028794;28;20438;-71
2023/07/12 02:28:43;;;;;;;650.80;464.90;;;19.00;99.90;;;;;;5030824;28;20430;-72
2023/07/12 02:31:19;;;;;;;664.35;470.85;;;18.90;99.90;;;;;;5026555;28;20458;-72
2023/07/12 02:33:47;;;;;;;664.55;478.98;;;18.80;99.90;;;;;;5027438;28;20426;-71
2023/07/12 02:36:14;;;;;;;669.00;482.37;;;18.70;99.90;;;;;;5027804;28;20449;-71
2023/07/12 02:38:41;;;;;;;674.92;496.40;;;18.70;99.90;;;;;;5027200;28;20437;-71
2023/07/12 02:41:08;;;;;;;665.17;470.75;;;18.60;99.90;;;;;;5030692;28;20462;-71
2023/07/12 02:43:35;;;;;;;670.25;485.40;;;18.60;99.90;;;;;;5033144;28;20465;-71
2023/07/12 02:46:03;;;;;;;671.83;485.13;;;18.50;99.90;;;;;;5027271;28;20434;-71
2023/07/12 02:48:30;;;;;;;676.55;494.48;;;18.50;99.90;;;;;;5022505;28;20485;-71
2023/07/12 02:50:57;;;;;;;676.88;502.15;;;18.50;99.90;;;;;;5030080;28;20431;-71
2023/07/12 02:53:24;;;;;;;675.35;502.48;;;18.40;99.90;;;;;;5029594;28;20438;-71
2023/07/12 02:55:51;;;;;;;664.90;486.70;;;18.40;99.90;;;;;;5027680;28;20431;-71
2023/07/12 02:58:18;;;;;;;659.17;478.13;;;18.50;99.90;;;;;;5027941;28;20434;-71
2023/07/12 03:00:45;;;;;;;652.53;465.57;;;18.40;99.90;;;;;;5027603;28;20446;-71
2023/07/12 03:03:13;;;;;;;653.05;463.70;;;18.40;99.90;;;;;;5027675;28;20823;-72
2023/07/12 03:05:40;;;;;;;655.25;468.90;;;18.50;99.90;;;;;;5027282;28;20550;-71
2023/07/12 03:08:07;;;;;;;637.50;449.87;;;18.40;99.90;;;;;;5028592;28;20842;-72
2023/07/12 03:10:37;;;;;;;632.22;438.75;;;18.40;99.90;;;;;;5010795;28;20461;-71
2023/07/12 03:13:04;;;;;;;633.78;445.73;;;18.40;99.90;;;;;;5027021;28;20449;-72
2023/07/12 03:15:31;;;;;;;634.53;442.48;;;18.30;99.90;;;;;;5027840;28;20496;-71
2023/07/12 03:17:58;;;;;;;641.42;452.02;;;18.30;99.90;;;;;;5029013;28;20466;-71
2023/07/12 03:20:25;;;;;;;652.10;471.63;;;18.20;99.90;;;;;;5030253;28;21012;-72
2023/07/12 03:22:51;;;;;;;644.95;455.77;;;18.10;99.90;;;;;;5030163;28;20442;-71
2023/07/12 03:25:20;;;;;;;645.00;451.07;;;18.10;99.90;;;;;;5011176;28;20442;-71
2023/07/12 03:27:48;;;;;;;646.63;454.65;;;18.00;99.90;;;;;;5026705;28;20496;-71
2023/07/12 03:30:14;;;;;;;645.50;447.02;;;18.00;99.90;;;;;;5024186;28;20431;-71
2023/07/12 03:32:41;;;;;;;644.58;451.02;;;18.00;99.90;;;;;;5026982;28;20427;-72
2023/07/12 03:35:08;;;;;;;639.20;450.55;;;18.10;99.90;;;;;;5011476;28;20430;-72
2023/07/12 03:37:35;;;;;;;636.75;452.42;;;18.20;99.90;;;;;;5027031;28;20427;-72
2023/07/12 03:40:04;;;;;;;631.97;434.35;;;18.20;99.90;;;;;;5024035;28;20445;-71
2023/07/12 03:42:31;;;;;;;644.25;453.00;;;18.30;99.90;;;;;;5028657;28;20439;-73
2023/07/12 03:44:58;;;;;;;645.13;473.13;;;18.40;99.90;;;;;;5028937;28;20521;-72
2023/07/12 03:47:25;;;;;;;647.25;485.80;;;18.50;99.90;;;;;;5027610;28;20428;-71
2023/07/12 03:49:52;;;;;;;659.25;502.45;;;18.60;99.90;;;;;;5026535;28;20432;-72
2023/07/12 03:52:18;;;;;;;674.63;512.00;;;18.70;99.90;;;;;;5032144;28;20477;-72
2023/07/12 03:54:45;;;;;;;680.00;516.95;;;18.70;99.90;;;;;;5009433;28;20430;-72
2023/07/12 03:57:12;;;;;;;676.38;504.95;;;18.80;99.90;;;;;;5029599;28;20436;-71
2023/07/12 03:59:39;;;;;;;690.20;539.17;;;18.90;99.90;;;;;;5029503;28;20849;-72
2023/07/12 04:02:06;;;;;;;702.58;571.75;;;18.90;99.90;;;;;;5027752;28;20431;-72
2023/07/12 04:04:33;;;;;;;706.53;525.13;;;19.00;99.90;;;;;;5026619;28;20501;-72
2023/07/12 04:07:00;;;;;;;706.30;529.40;;;19.00;99.90;;;;;;5021881;28;20432;-71
2023/07/12 04:09:27;;;;;;;713.70;519.38;;;19.10;99.90;;;;;;5011606;28;20912;-71
2023/07/12 04:11:54;;;;;;;723.85;552.78;;;19.10;99.90;;;;;;5030591;28;20437;-71
2023/07/12 04:14:23;;;;;;;726.55;532.88;;;19.20;99.90;;;;;;5029923;28;20426;-71
2023/07/12 04:16:50;;;;;;;720.90;528.00;;;19.20;99.90;;;;;;5028987;28;20514;-71
2023/07/12 04:19:17;;;;;;;720.20;508.97;;;19.20;99.90;;;;;;5028471;28;20965;-71
2023/07/12 04:21:44;;;;;;;720.53;523.50;;;19.20;99.90;;;;;;5029794;28;20497;-72
2023/07/12 04:24:11;;;;;;;723.22;538.15;;;19.20;99.90;;;;;;5019107;28;20517;-71
2023/07/12 04:26:38;;;;;;;734.63;563.90;;;19.20;99.90;;;;;;5016550;28;20855;-71
2023/07/12 04:29:05;;;;;;;748.97;614.35;;;19.30;99.90;;;;;;5017371;28;20516;-71
2023/07/12 04:31:32;;;;;;;747.25;613.78;;;19.40;99.90;;;;;;5025464;28;20462;-72
2023/07/12 04:33:59;;;;;;;753.38;614.28;;;19.70;99.90;;;;;;5032587;28;20461;-71
2023/07/12 04:36:26;;;;;;;765.20;624.17;;;19.90;99.90;;;;;;5038989;28;20437;-71
2023/07/12 04:38:52;;;;;;;774.53;631.63;;;20.20;99.90;;;;;;5028591;28;20793;-71
2023/07/12 04:41:19;;;;;;;800.27;647.83;;;20.40;99.90;;;;;;5029113;28;20928;-72
2023/07/12 04:43:46;;;;;;;802.45;662.95;;;20.60;99.90;;;;;;5039514;28;21147;-72
2023/07/12 04:46:13;;;;;;;809.53;664.10;;;20.60;99.90;;;;;;5025013;28;20897;-73
2023/07/12 04:48:39;;;;;;;808.40;665.30;;;20.70;99.90;;;;;;5027449;28;20429;-71
2023/07/12 04:51:07;;;;;;;814.58;669.85;;;20.70;99.90;;;;;;5031831;28;20430;-72
2023/07/12 04:53:34;;;;;;;819.50;675.28;;;20.80;99.90;;;;;;5013585;28;20509;-72
2023/07/12 04:56:02;;;;;;;827.53;672.42;;;20.80;99.90;;;;;;5030581;28;20453;-72
2023/07/12 04:58:29;;;;;;;783.30;592.60;;;20.70;99.90;;;;;;5032290;28;20952;-76
2023/07/12 05:00:56;;;;;;;791.67;597.97;;;20.70;99.90;;;;;;5033514;28;20445;-73
2023/07/12 05:03:24;;;;;;;789.53;605.80;;;20.60;99.90;;;;;;5028231;28;20434;-72
2023/07/12 05:05:57;;;;;;;793.90;603.85;;;20.50;99.90;;;;;;5030451;28;20798;-71
2023/07/12 05:08:39;;;;;;;780.15;594.72;;;20.50;99.90;;;;;;5025975;28;20427;-70
2023/07/12 05:11:06;;;;;;;789.92;614.63;;;20.50;99.90;;;;;;5026031;28;20430;-70
2023/07/12 05:13:34;;;;;;;790.30;606.47;;;20.60;99.90;;;;;;5025807;28;20426;-72
2023/07/12 05:16:02;;;;;;;798.80;615.72;;;20.70;99.90;;;;;;5033897;28;20467;-70
2023/07/12 05:18:29;;;;;;;798.55;619.95;;;20.80;99.90;;;;;;5025568;28;20471;-69
2023/07/12 05:20:57;;;;;;;787.95;621.70;;;20.90;99.90;;;;;;5027648;28;20449;-72
2023/07/12 05:23:24;;;;;;;861.97;672.70;;;21.10;99.90;;;;;;5024308;28;20531;-69
2023/07/12 05:25:52;;;;;;;830.07;642.30;;;21.20;99.90;;;;;;5010819;28;20499;-69
2023/07/12 05:28:20;;;;;;;883.05;710.85;;;21.20;99.90;;;;;;5029569;28;20484;-69
2023/07/12 05:30:48;;;;;;;889.70;717.03;;;21.20;99.90;;;;;;5014183;28;20864;-70
2023/07/12 05:33:15;;;;;;;767.53;690.92;;;21.10;99.90;;;;;;5028043;28;20440;-70
2023/07/12 05:35:42;;;;;;;896.63;730.25;;;21.30;99.90;;;;;;5007069;28;20476;-70
2023/07/12 05:38:09;;;;;;;873.73;738.80;;;21.60;99.90;;;;;;5022997;28;20795;-70
2023/07/12 05:40:37;;;;;;;904.03;740.22;;;21.80;99.90;;;;;;5026297;28;20493;-71
2023/07/12 05:43:03;;;;;;;822.72;735.78;;;22.20;99.90;;;;;;5023297;28;20463;-72
2023/07/12 05:45:30;;;;;;;865.30;770.40;;;22.40;99.90;;;;;;5028203;28;20429;-72
2023/07/12 05:47:57;;;;;;;944.50;772.53;;;22.60;99.90;;;;;;5009599;28;20996;-72
2023/07/12 05:50:26;;;;;;;969.87;784.30;;;23.20;99.90;;;;;;5022582;28;20427;-71
2023/07/12 05:52:53;;;;;;;975.90;791.13;;;23.50;99.90;;;;;;5025068;28;20948;-72
2023/07/12 05:55:20;;;;;;;687.53;617.75;;;23.40;99.90;;;;;;5029236;28;20438;-69
2023/07/12 05:57:48;;;;;;;959.33;776.40;;;23.10;99.90;;;;;;5023763;28;20445;-71
2023/07/12 06:00:17;;;;;;;954.17;771.03;;;23.10;99.90;;;;;;5025215;28;20438;-72
2023/07/12 06:02:47;;;;;;;956.63;769.97;;;23.00;99.90;;;;;;5024828;28;20441;-72
2023/07/12 06:05:14;;;;;;;947.40;759.50;;;23.00;99.90;;;;;;5015049;28;20521;-70
2023/07/12 06:07:41;;;;;;;955.05;766.00;;;23.00;99.90;;;;;;5005315;28;20589;-72
2023/07/12 06:10:09;;;;;;;945.42;756.33;;;23.00;99.90;;;;;;5023304;28;20446;-73
2023/07/12 06:12:35;;;;;;;938.80;752.63;;;23.00;99.90;;;;;;5028485;28;20842;-70
2023/07/12 06:15:02;;;;;;;941.95;763.13;;;23.20;99.90;;;;;;5008530;28;20437;-71
2023/07/12 06:17:29;;;;;;;952.53;767.83;;;23.20;99.90;;;;;;5022493;28;20430;-71
2023/07/12 06:19:59;;;;;;;951.13;772.58;;;23.50;99.90;;;;;;5022965;28;20427;-70
2023/07/12 06:22:26;;;;;;;950.50;777.72;;;23.90;99.90;;;;;;5023996;28;20437;-71
2023/07/12 06:24:53;;;;;;;961.25;792.70;;;24.50;99.90;;;;;;5023299;28;20533;-71
2023/07/12 06:27:19;;;;;;;961.95;791.28;;;24.60;99.90;;;;;;5017667;28;20434;-71
2023/07/12 06:29:47;;;;;;;962.42;779.35;;;24.40;99.90;;;;;;5025450;28;20985;-71
2023/07/12 06:32:14;;;;;;;965.55;784.70;;;24.00;99.90;;;;;;5026803;28;20435;-70
2023/07/12 06:34:41;;;;;;;950.47;767.75;;;23.70;99.90;;;;;;5027920;28;20489;-69
2023/07/12 06:37:11;;;;;;;937.97;751.17;;;23.50;99.90;;;;;;5033045;28;20473;-70
2023/07/12 06:39:37;;;;;;;939.47;750.50;;;23.60;99.90;;;;;;5036797;28;20518;-70
2023/07/12 06:42:05;;;;;;;931.42;748.17;;;23.50;99.90;;;;;;5011507;28;20499;-70
2023/07/12 06:44:32;;;;;;;945.00;764.60;;;23.60;99.90;;;;;;5030021;28;20527;-70
2023/07/12 06:46:58;;;;;;;946.28;769.22;;;24.30;99.90;;;;;;5021308;28;20489;-71
2023/07/12 06:49:27;;;;;;;938.40;759.13;;;24.60;99.90;;;;;;5028958;28;20435;-69
2023/07/12 06:51:57;;;;;;;922.55;733.33;;;24.20;99.90;;;;;;5029870;28;20435;-70
2023/07/12 06:54:24;;;;;;;935.33;746.78;;;23.90;99.90;;;;;;5027325;28;20813;-70
2023/07/12 06:56:51;;;;;;;934.70;747.38;;;23.80;99.90;;;;;;5027776;28;20488;-69
2023/07/12 06:59:17;;;;;;;938.30;755.00;;;23.80;99.90;;;;;;5029655;28;20558;-70
2023/07/12 07:01:45;;;;;;;937.45;759.85;;;23.70;99.90;;;;;;5025286;28;20462;-68
2023/07/12 07:04:12;;;;;;;931.90;744.57;;;23.60;99.90;;;;;;5029152;28;20460;-69
2023/07/12 07:06:39;;;;;;;928.00;747.72;;;23.30;99.90;;;;;;5032908;28;20435;-69
2023/07/12 07:09:06;;;;;;;935.90;765.13;;;23.30;99.90;;;;;;5025346;28;20426;-69
2023/07/12 07:11:33;;;;;;;945.85;772.30;;;24.20;99.90;;;;;;5029797;28;20479;-69
2023/07/12 07:14:00;;;;;;;967.50;796.03;;;25.20;99.90;;;;;;5030266;28;20442;-70
2023/07/12 07:16:27;;;;;;;980.45;817.33;;;25.80;99.90;;;;;;5022676;28;20442;-69
2023/07/12 07:18:54;;;;;;;972.08;814.88;;;26.50;99.90;;;;;;5024314;28;20462;-68
2023/07/12 07:21:21;;;;;;;981.55;825.40;;;27.00;99.90;;;;;;5021523;28;20434;-69
2023/07/12 07:23:48;;;;;;;983.22;830.40;;;27.10;99.90;;;;;;5017158;28;20458;-67
2023/07/12 07:26:17;;;;;;;1004.93;863.70;;;27.20;99.90;;;;;;5039768;28;20538;-68
2023/07/12 07:28:47;;;;;;;1006.63;864.83;;;27.60;99.90;;;;;;5027593;28;20504;-69
2023/07/12 07:31:16;;;;;;;1026.82;896.10;;;28.00;99.90;;;;;;5029701;28;20439;-66
2023/07/12 07:33:43;;;;;;;1030.45;899.72;;;28.70;99.90;;;;;;5023726;28;20431;-67
2023/07/12 07:36:12;;;;;;;1028.03;902.20;;;29.40;99.90;;;;;;5023438;28;20435;-67
2023/07/12 07:38:39;;;;;;;1026.55;908.47;;;29.50;99.90;;;;;;5026924;28;20493;-67
2023/07/12 07:41:12;;;;;;;1030.77;913.23;;;29.90;99.90;;;;;;5028333;28;20434;-67
2023/07/12 07:43:44;;;;;;;1031.53;916.55;;;29.90;99.90;;;;;;5025849;28;20529;-67
2023/07/12 07:46:12;;;;;;;1040.85;925.35;;;29.70;99.90;;;;;;5027890;28;20513;-67
2023/07/12 07:48:39;;;;;;;1038.50;922.10;;;29.50;99.90;;;;;;5000687;28;20515;-67
2023/07/12 07:51:10;;;;;;;1025.95;896.10;;;28.60;99.90;;;;;;5019721;28;20449;-67
2023/07/12 07:53:37;;;;;;;1015.90;905.75;;;28.10;99.90;;;;;;5020384;28;20439;-66
2023/07/12 07:56:04;;;;;;;1028.70;900.15;;;27.90;99.90;;;;;;5022268;28;20461;-66
2023/07/12 07:58:31;;;;;;;1025.87;902.37;;;28.30;99.90;;;;;;5036333;28;20437;-66
2023/07/12 08:00:59;;;;;;;1018.83;906.83;;;29.00;99.90;;;;;;5022042;28;20534;-68
2023/07/12 08:03:30;;;;;;;1026.85;921.65;;;29.40;99.90;;;;;;5026384;28;20443;-67
2023/07/12 08:06:05;;;;;;;1021.35;920.63;;;29.10;99.90;;;;;;5017677;28;20766;-66
2023/07/12 08:08:34;;;;;;;680.73;616.93;;;29.60;99.90;;;;;;5026509;28;20433;-66
2023/07/12 08:11:06;;;;;;;813.28;741.28;;;29.80;99.90;;;;;;5028307;28;20428;-65
2023/07/12 08:13:33;;;;;;;1029.35;930.08;;;29.50;99.90;;;;;;5026811;28;20893;-67
2023/07/12 08:16:00;;;;;;;1034.20;931.40;;;29.80;99.90;;;;;;5026698;28;20905;-66
2023/07/12 08:18:27;;;;;;;892.80;814.08;;;30.10;99.90;;;;;;5030302;28;20442;-66
2023/07/12 08:20:55;;;;;;;998.60;899.85;;;29.90;99.90;;;;;;5027832;28;20520;-66
2023/07/12 08:23:23;;;;;;;1034.03;932.65;;;29.80;99.90;;;;;;4999295;28;20527;-66
2023/07/12 08:25:51;;;;;;;1047.97;936.05;;;30.40;99.90;;;;;;5031811;28;20520;-67
2023/07/12 08:28:19;;;;;;;1045.60;937.35;;;30.30;99.90;;;;;;5020752;28;20447;-66
2023/07/12 08:30:46;;;;;;;1040.93;934.30;;;29.80;99.90;;;;;;5037191;28;20432;-66
2023/07/12 08:33:13;;;;;;;1037.82;927.50;;;29.40;99.90;;;;;;5031684;28;20439;-67
2023/07/12 08:35:40;;;;;;;1020.67;889.10;;;29.00;99.90;;;;;;5032772;28;20437;-67
2023/07/12 08:38:16;;;;;;;1028.07;897.27;;;28.60;99.90;;;;;;5046059;28;20437;-67
2023/07/12 08:40:49;;;;;;;1025.15;892.60;;;28.30;99.90;;;;;;5014162;28;20925;-68
2023/07/12 08:43:20;;;;;;;1019.85;883.17;;;28.60;99.90;;;;;;5029019;28;20435;-67
2023/07/12 08:45:50;;;;;;;1013.25;869.83;;;28.50;99.90;;;;;;5044317;28;20451;-67
2023/07/12 08:48:22;;;;;;;998.88;857.35;;;28.40;99.90;;;;;;5052215;28;20482;-66
2023/07/12 08:50:50;;;;;;;1011.28;866.45;;;28.60;99.90;;;;;;5042112;28;20425;-66
2023/07/12 08:53:19;;;;;;;1004.50;879.03;;;28.30;99.90;;;;;;5027145;28;20430;-66
2023/07/12 08:55:46;;;;;;;750.20;682.35;;;28.20;99.90;;;;;;5028286;28;20459;-67
2023/07/12 08:58:34;;;;;;;1004.40;902.38;;;28.60;99.90;;;;;;5027397;28;20434;-67
2023/07/12 09:01:06;;;;;;;1018.95;884.65;;;29.10;99.90;;;;;;5013841;28;20458;-66
2023/07/12 09:03:34;;;;;;;1012.60;873.03;;;29.30;99.90;;;;;;5036829;28;20438;-66
2023/07/12 09:06:01;;;;;;;1021.47;884.95;;;29.50;99.90;;;;;;5021514;28;20440;-67
2023/07/12 09:08:35;;;;;;;1023.78;894.33;;;29.70;99.90;;;;;;5011497;28;20490;-67
2023/07/12 09:11:02;;;;;;;1027.35;915.78;;;30.10;99.90;;;;;;5028008;28;20425;-66
2023/07/12 09:13:38;;;;;;;1011.60;901.00;;;31.00;99.90;;;;;;5031215;28;20423;-66
2023/07/12 09:16:30;;;;;;;995.88;873.92;;;31.50;99.90;;;;;;5031880;28;20470;-67
2023/07/12 09:19:23;;;;;;;991.05;869.85;;;30.80;99.90;;;;;;5021516;28;20436;-67
2023/07/12 09:21:54;;;;;;;999.15;875.20;;;30.30;99.90;;;;;;5022561;28;20471;-68
2023/07/12 09:24:28;;;;;;;992.58;863.08;;;30.20;99.90;;;;;;5027236;28;20538;-66
2023/07/12 09:27:06;;;;;;;985.13;861.00;;;29.90;99.90;;;;;;5010268;28;20431;-67
2023/07/12 09:29:33;;;;;;;988.17;865.22;;;29.90;99.90;;;;;;5028337;28;20450;-66
2023/07/12 09:32:01;;;;;;;994.83;872.33;;;29.90;99.90;;;;;;5038086;28;20949;-67
2023/07/12 09:34:39;;;;;;;1020.33;900.40;;;30.10;99.90;;;;;;5012188;28;20439;-66
2023/07/12 09:37:15;;;;;;;1010.78;897.78;;;30.70;99.90;;;;;;5028821;28;20487;-66
2023/07/12 09:40:01;;;;;;;1039.43;924.53;;;31.50;99.90;;;;;;5032575;28;20798;-66
2023/07/12 09:42:30;;;;;;;1036.07;921.20;;;31.60;99.90;;;;;;5004609;28;20950;-66
2023/07/12 09:44:58;;;;;;;1015.70;896.83;;;31.10;99.90;;;;;;5007173;28;20443;-67
2023/07/12 09:47:46;;;;;;;1001.90;875.03;;;30.10;99.90;;;;;;5024175;28;20429;-67
2023/07/12 09:50:24;;;;;;;1001.35;868.33;;;30.40;99.90;;;;;;5028672;28;20430;-66
2023/07/12 09:53:16;;;;;;;993.87;858.50;;;29.60;99.90;;;;;;5024349;28;20466;-67
2023/07/12 09:56:01;;;;;;;1007.28;872.60;;;29.80;99.90;;;;;;5030913;28;20925;-66
2023/07/12 09:58:40;;;;;;;1019.72;907.85;;;30.00;99.90;;;;;;5023814;28;20438;-66
2023/07/12 10:01:32;;;;;;;1008.42;874.20;;;29.80;99.90;;;;;;5025339;28;20494;-66
2023/07/12 10:04:13;;;;;;;1007.85;872.60;;;29.90;99.90;;;;;;5025170;28;20578;-66
2023/07/12 10:06:55;;;;;;;997.65;855.25;;;29.90;99.90;;;;;;5026119;28;20434;-66
2023/07/12 10:09:33;;;;;;;1016.28;878.47;;;29.40;99.90;;;;;;5028144;28;20427;-67
2023/07/12 10:12:07;;;;;;;1004.90;856.70;;;29.10;99.90;;;;;;5024797;28;20534;-67
2023/07/12 10:14:38;;;;;;;1004.42;858.20;;;28.70;99.90;;;;;;5026671;28;20431;-67
2023/07/12 10:17:12;;;;;;;983.58;874.58;;;28.60;99.90;;;;;;5028731;28;20426;-67
2023/07/12 10:19:41;;;;;;;995.22;846.95;;;28.40;99.90;;;;;;5028153;28;20449;-67
2023/07/12 10:22:35;;;;;;;1001.15;854.13;;;28.40;99.90;;;;;;5024881;28;20504;-67
2023/07/12 10:25:14;;;;;;;964.80;859.85;;;28.30;99.90;;;;;;5018543;28;20433;-66
2023/07/12 10:27:50;;;;;;;955.65;869.75;;;28.10;99.90;;;;;;5025958;28;20466;-66
2023/07/12 10:30:21;;;;;;;987.97;863.50;;;28.00;99.90;;;;;;5025787;28;20475;-69
2023/07/12 10:32:55;;;;;;;984.25;873.50;;;28.20;99.90;;;;;;5005080;28;20454;-68
2023/07/12 10:35:29;;;;;;;999.60;890.70;;;29.30;99.90;;;;;;5025194;28;20517;-66
2023/07/12 10:38:01;;;;;;;994.58;900.28;;;30.60;99.90;;;;;;5025357;28;20516;-68
2023/07/12 10:40:36;;;;;;;1041.47;926.03;;;31.70;99.90;;;;;;5027884;28;20439;-67
2023/07/12 10:43:16;;;;;;;1066.20;955.43;;;32.20;99.90;;;;;;5023864;28;20983;-67
2023/07/12 10:45:43;;;;;;;1072.88;956.15;;;33.00;99.80;;;;;;5011096;28;20439;-67
2023/07/12 10:48:23;;;;;;;1059.45;944.17;;;33.20;98.60;;;;;;5032866;28;20435;-66
2023/07/12 10:50:54;;;;;;;1039.65;925.92;;;33.30;96.10;;;;;;5022385;28;20494;-66
2023/07/12 10:53:24;;;;;;;1024.37;911.20;;;33.40;94.40;;;;;;5021943;28;20468;-66
2023/07/12 10:56:19;;;;;;;1072.15;955.53;;;33.50;94.80;;;;;;5016022;28;20516;-65
2023/07/12 10:58:51;;;;;;;1050.03;934.75;;;33.70;93.20;;;;;;5027945;28;20785;-65
2023/07/12 11:01:45;;;;;;;975.25;880.55;;;33.40;93.10;;;;;;5011828;28;20426;-66
2023/07/12 11:04:13;;;;;;;636.10;572.90;;;32.70;93.10;;;;;;5023826;28;20427;-64
2023/07/12 11:07:02;;;;;;;1022.08;909.35;;;32.30;93.60;;;;;;5036538;28;20435;-67
2023/07/12 11:09:47;;;;;;;1029.28;920.97;;;31.60;93.60;;;;;;5028739;28;20494;-66
2023/07/12 11:12:32;;;;;;;1005.72;873.13;;;30.60;94.30;;;;;;5008743;28;20431;-64
2023/07/12 11:15:24;;;;;;;1013.27;879.13;;;29.90;95.20;;;;;;5035373;28;20450;-68
2023/07/12 11:18:10;;;;;;;1002.28;896.58;;;30.20;96.50;;;;;;5029456;28;20434;-69
2023/07/12 11:20:59;;;;;;;1012.38;901.65;;;31.30;96.10;;;;;;5018542;28;20451;-66
2023/07/12 11:23:30;;;;;;;1025.57;898.55;;;32.30;94.60;;;;;;5027737;28;20848;-65
2023/07/12 11:26:18;;;;;;;1027.18;904.85;;;32.70;93.50;;;;;;5027389;28;20516;-67
2023/07/12 11:28:45;;;;;;;1026.17;908.90;;;32.90;94.00;;;;;;5026409;28;20519;-64
2023/07/12 11:31:25;;;;;;;1035.25;920.45;;;33.30;93.40;;;;;;5006955;28;20467;-66
2023/07/12 11:34:24;;;;;;;1079.10;962.13;;;33.60;93.60;;;;;;5023042;28;20514;-65
2023/07/12 11:36:56;;;;;;;1031.18;917.65;;;33.50;92.20;;;;;;5020606;28;20476;-66
2023/07/12 11:39:27;;;;;;;1036.70;934.47;;;32.60;93.10;;;;;;5017708;28;20431;-66
2023/07/12 11:41:56;;;;;;;1030.40;907.90;;;32.60;93.00;;;;;;5021826;28;20451;-65
2023/07/12 11:44:25;;;;;;;1031.82;908.42;;;32.80;94.20;;;;;;5026456;28;20435;-66
2023/07/12 11:46:53;;;;;;;1031.30;917.38;;;33.00;93.60;;;;;;5026747;28;20518;-67
2023/07/12 11:49:28;;;;;;;1037.70;932.27;;;33.20;93.30;;;;;;5023966;28;20453;-67
2023/07/12 11:51:57;;;;;;;1031.05;931.35;;;33.50;92.50;;;;;;5022862;28;20473;-67
2023/07/12 11:54:27;;;;;;;1035.80;917.30;;;33.30;92.30;;;;;;5024650;28;20451;-66
2023/07/12 11:57:01;;;;;;;1027.57;920.50;;;33.30;91.90;;;;;;5026937;28;20435;-65
2023/07/12 11:59:39;;;;;;;1025.93;912.72;;;33.00;91.90;;;;;;5029285;28;20427;-66
2023/07/12 12:02:18;;;;;;;1028.40;906.67;;;33.10;91.70;;;;;;5023948;28;20438;-66
2023/07/12 12:04:49;;;;;;;1020.72;904.47;;;33.10;91.70;;;;;;5026431;28;20913;-65
2023/07/12 12:07:38;;;;;;;1027.30;913.35;;;32.80;91.70;;;;;;5026968;28;20434;-67
2023/07/12 12:10:07;;;;;;;1022.40;889.03;;;32.40;91.80;;;;;;5019684;28;20434;-66
2023/07/12 12:12:33;;;;;;;1003.58;897.03;;;32.20;92.00;;;;;;5029983;28;20731;-65
2023/07/12 12:15:21;;;;;;;1014.47;877.97;;;32.10;91.90;;;;;;5025722;28;20485;-67
2023/07/12 12:17:50;;;;;;;998.80;861.15;;;31.80;92.00;;;;;;5027447;28;20434;-66
2023/07/12 12:20:20;;;;;;;995.17;856.13;;;31.40;92.70;;;;;;5025260;28;20522;-65
2023/07/12 12:22:59;;;;;;;1001.33;865.60;;;31.10;91.90;;;;;;5017194;28;20475;-67